createdAt,value
2016-12-02T00:00:12.132Z,0
2016-12-02T00:01:12.202Z,0
2016-12-02T00:02:12.254Z,0
2016-12-02T00:03:12.314Z,0
2016-12-02T00:04:12.358Z,0
2016-12-02T00:05:12.406Z,0
2016-12-02T00:06:12.492Z,0
2016-12-02T00:07:12.530Z,0
2016-12-02T00:08:12.594Z,0
2016-12-02T00:09:12.628Z,0
2016-12-02T00:10:12.713Z,0
2016-12-02T00:11:12.761Z,0
2016-12-02T00:12:12.818Z,0
2016-12-02T00:13:12.881Z,0
2016-12-02T00:14:12.948Z,0
2016-12-02T00:15:12.988Z,0
2016-12-02T00:16:13.044Z,0
2016-12-02T00:17:13.080Z,0
2016-12-02T00:18:13.339Z,0
2016-12-02T00:19:13.433Z,0
2016-12-02T00:20:13.276Z,0
2016-12-02T00:21:13.334Z,0
2016-12-02T00:22:13.370Z,0
2016-12-02T00:23:13.460Z,0
2016-12-02T00:24:13.501Z,0
2016-12-02T00:25:13.552Z,0
2016-12-02T00:26:13.604Z,0
2016-12-02T00:27:13.674Z,0
2016-12-02T00:28:13.720Z,0
2016-12-02T00:29:13.775Z,0
2016-12-02T00:30:13.833Z,0
2016-12-02T00:31:13.896Z,0
2016-12-02T00:32:13.954Z,0
2016-12-02T00:33:14.049Z,0
2016-12-02T00:34:14.042Z,0
2016-12-02T00:35:14.134Z,0
2016-12-02T00:36:14.172Z,0
2016-12-02T00:37:14.229Z,0
2016-12-02T00:38:14.286Z,0
2016-12-02T00:39:14.350Z,0
2016-12-02T00:40:14.399Z,0
2016-12-02T00:41:14.457Z,0
2016-12-02T00:42:14.507Z,0
2016-12-02T00:43:14.568Z,0
2016-12-02T00:44:14.627Z,0
2016-12-02T00:45:14.890Z,0
2016-12-02T00:46:29.667Z,0
2016-12-02T00:47:14.797Z,0
2016-12-02T00:48:14.854Z,0
2016-12-02T00:49:14.895Z,0
2016-12-02T00:50:14.945Z,0
2016-12-02T00:51:15.003Z,0
2016-12-02T00:52:15.080Z,0
2016-12-02T00:53:15.152Z,0
2016-12-02T00:54:15.210Z,0
2016-12-02T00:55:15.250Z,0
2016-12-02T00:56:15.306Z,0
2016-12-02T00:57:15.370Z,0
2016-12-02T00:58:15.413Z,0
2016-12-02T00:59:15.474Z,0
2016-12-02T01:00:15.553Z,0
2016-12-02T01:01:15.586Z,0
2016-12-02T01:02:15.638Z,0
2016-12-02T01:03:15.695Z,0
2016-12-02T01:04:15.757Z,0
2016-12-02T01:05:15.804Z,0
2016-12-02T01:06:15.862Z,0
2016-12-02T01:07:15.919Z,0
2016-12-02T01:08:15.997Z,0
2016-12-02T01:09:16.048Z,0
2016-12-02T01:10:16.089Z,0
2016-12-02T01:11:16.340Z,0
2016-12-02T01:12:16.395Z,0
2016-12-02T01:13:16.473Z,0
2016-12-02T01:14:16.324Z,0
2016-12-02T01:15:16.389Z,0
2016-12-02T01:16:16.419Z,0
2016-12-02T01:17:16.486Z,0
2016-12-02T01:18:16.532Z,0
2016-12-02T01:19:16.580Z,0
2016-12-02T01:20:16.640Z,0
2016-12-02T01:21:16.704Z,0
2016-12-02T01:22:16.755Z,0
2016-12-02T01:23:16.826Z,0
2016-12-02T01:24:16.879Z,0
2016-12-02T01:25:17.250Z,0
2016-12-02T01:26:17.004Z,0
2016-12-02T01:27:17.075Z,0
2016-12-02T01:28:17.104Z,0
2016-12-02T01:29:17.152Z,0
2016-12-02T01:30:17.215Z,0
2016-12-02T01:31:17.275Z,0
2016-12-02T01:32:17.329Z,0
2016-12-02T01:33:17.391Z,0
2016-12-02T01:34:17.456Z,0
2016-12-02T01:35:17.502Z,0
2016-12-02T01:36:17.557Z,0
2016-12-02T01:37:17.611Z,0
2016-12-02T01:38:17.865Z,0
2016-12-02T01:39:17.733Z,0
2016-12-02T01:40:17.796Z,0
2016-12-02T01:41:17.860Z,0
2016-12-02T01:42:17.897Z,0
2016-12-02T01:43:18.249Z,0
2016-12-02T01:44:18.026Z,0
2016-12-02T01:45:18.074Z,0
2016-12-02T01:46:18.128Z,0
2016-12-02T01:47:18.165Z,0
2016-12-02T01:48:18.230Z,0
2016-12-02T01:49:18.315Z,0
2016-12-02T01:50:18.368Z,0
2016-12-02T01:51:18.415Z,0
2016-12-02T01:52:18.467Z,0
2016-12-02T01:53:18.519Z,0
2016-12-02T01:54:18.588Z,0
2016-12-02T01:55:18.615Z,0
2016-12-02T01:56:18.681Z,0
2016-12-02T01:57:18.780Z,0
2016-12-02T01:58:18.823Z,0
2016-12-02T01:59:18.864Z,0
2016-12-02T02:00:18.913Z,0
2016-12-02T02:01:18.965Z,0
2016-12-02T02:02:19.017Z,0
2016-12-02T02:03:19.077Z,0
2016-12-02T02:04:19.140Z,0
2016-12-02T02:05:19.193Z,0
2016-12-02T02:06:19.239Z,0
2016-12-02T02:07:19.322Z,0
2016-12-02T02:08:19.355Z,0
2016-12-02T02:09:19.418Z,0
2016-12-02T02:10:19.493Z,0
2016-12-02T02:11:19.544Z,0
2016-12-02T02:12:19.587Z,0
2016-12-02T02:13:19.696Z,0
2016-12-02T02:14:19.722Z,0
2016-12-02T02:15:19.778Z,0
2016-12-02T02:16:19.825Z,0
2016-12-02T02:17:19.866Z,0
2016-12-02T02:18:19.940Z,0
2016-12-02T02:19:20.009Z,0
2016-12-02T02:20:20.057Z,0
2016-12-02T02:21:20.104Z,0
2016-12-02T02:22:20.180Z,0
2016-12-02T02:23:20.215Z,0
2016-12-02T02:24:20.277Z,0
2016-12-02T02:25:20.330Z,0
2016-12-02T02:26:20.402Z,0
2016-12-02T02:27:20.429Z,0
2016-12-02T02:28:20.485Z,0
2016-12-02T02:29:20.561Z,0
2016-12-02T02:30:20.620Z,0
2016-12-02T02:31:20.690Z,0
2016-12-02T02:32:20.733Z,0
2016-12-02T02:33:20.805Z,0
2016-12-02T02:34:20.848Z,0
2016-12-02T02:35:20.919Z,0
2016-12-02T02:36:20.952Z,0
2016-12-02T02:37:21.029Z,0
2016-12-02T02:38:21.071Z,0
2016-12-02T02:39:21.134Z,0
2016-12-02T02:40:21.168Z,0
2016-12-02T02:41:21.249Z,0
2016-12-02T02:42:21.312Z,0
2016-12-02T02:43:21.644Z,0
2016-12-02T02:44:21.401Z,0
2016-12-02T02:45:21.460Z,0
2016-12-02T02:46:21.509Z,0
2016-12-02T02:47:21.574Z,0
2016-12-02T02:48:21.655Z,0
2016-12-02T02:49:21.673Z,0
2016-12-02T02:50:21.728Z,0
2016-12-02T02:51:21.794Z,0
2016-12-02T02:52:21.867Z,0
2016-12-02T02:53:21.920Z,0
2016-12-02T02:54:21.970Z,0
2016-12-02T02:55:22.015Z,0
2016-12-02T02:56:22.075Z,0
2016-12-02T02:57:22.147Z,0
2016-12-02T02:58:22.189Z,0
2016-12-02T02:59:22.259Z,0
2016-12-02T03:00:22.311Z,0
2016-12-02T03:01:22.376Z,0
2016-12-02T03:02:22.414Z,0
2016-12-02T03:03:22.494Z,0
2016-12-02T03:04:22.537Z,0
2016-12-02T03:05:22.616Z,0
2016-12-02T03:06:22.655Z,0
2016-12-02T03:07:22.690Z,0
2016-12-02T03:08:22.761Z,0
2016-12-02T03:09:22.812Z,0
2016-12-02T03:10:22.864Z,0
2016-12-02T03:11:22.923Z,0
2016-12-02T03:12:22.986Z,0
2016-12-02T03:13:23.044Z,0
2016-12-02T03:14:23.106Z,0
2016-12-02T03:15:23.157Z,0
2016-12-02T03:16:23.219Z,0
2016-12-02T03:17:23.293Z,0
2016-12-02T03:18:23.340Z,0
2016-12-02T03:19:23.368Z,0
2016-12-02T03:20:23.428Z,0
2016-12-02T03:21:23.502Z,0
2016-12-02T03:22:23.563Z,0
2016-12-02T03:23:23.615Z,0
2016-12-02T03:24:23.682Z,0
2016-12-02T03:25:23.749Z,0
2016-12-02T03:26:23.789Z,0
2016-12-02T03:27:23.851Z,0
2016-12-02T03:28:23.896Z,0
2016-12-02T03:29:23.959Z,0
2016-12-02T03:30:24.004Z,0
2016-12-02T03:31:24.050Z,0
2016-12-02T03:32:24.135Z,0
2016-12-02T03:33:24.178Z,0
2016-12-02T03:34:24.233Z,0
2016-12-02T03:35:24.312Z,0
2016-12-02T03:36:24.347Z,0
2016-12-02T03:37:24.418Z,0
2016-12-02T03:38:24.459Z,0
2016-12-02T03:39:24.517Z,0
2016-12-02T03:40:24.582Z,0
2016-12-02T03:41:24.653Z,0
2016-12-02T03:42:24.688Z,0
2016-12-02T03:43:24.788Z,0
2016-12-02T03:44:24.783Z,0
2016-12-02T03:45:24.875Z,0
2016-12-02T03:46:24.910Z,0
2016-12-02T03:47:24.967Z,0
2016-12-02T03:48:25.023Z,0
2016-12-02T03:49:25.084Z,0
2016-12-02T03:50:25.153Z,0
2016-12-02T03:51:25.201Z,0
2016-12-02T03:52:25.238Z,0
2016-12-02T03:53:25.302Z,0
2016-12-02T03:54:25.369Z,0
2016-12-02T03:55:25.412Z,0
2016-12-02T03:56:25.495Z,0
2016-12-02T03:57:25.520Z,0
2016-12-02T03:58:25.588Z,0
2016-12-02T03:59:25.632Z,0
2016-12-02T04:00:25.689Z,0
2016-12-02T04:01:25.758Z,0
2016-12-02T04:02:25.822Z,0
2016-12-02T04:03:25.856Z,0
2016-12-02T04:04:25.918Z,0
2016-12-02T04:05:25.983Z,0
2016-12-02T04:06:26.059Z,0
2016-12-02T04:07:26.106Z,0
2016-12-02T04:08:26.175Z,0
2016-12-02T04:09:26.224Z,0
2016-12-02T04:10:26.274Z,0
2016-12-02T04:11:26.329Z,0
2016-12-02T04:12:26.409Z,0
2016-12-02T04:13:26.442Z,0
2016-12-02T04:14:26.515Z,0
2016-12-02T04:15:26.568Z,0
2016-12-02T04:16:26.628Z,0
2016-12-02T04:17:26.685Z,0
2016-12-02T04:18:26.725Z,0
2016-12-02T04:19:26.789Z,0
2016-12-02T04:20:26.854Z,0
2016-12-02T04:21:26.893Z,0
2016-12-02T04:22:27.259Z,0
2016-12-02T04:23:27.005Z,0
2016-12-02T04:24:27.042Z,0
2016-12-02T04:25:27.120Z,0
2016-12-02T04:26:27.192Z,0
2016-12-02T04:27:27.227Z,0
2016-12-02T04:28:27.276Z,0
2016-12-02T04:29:27.345Z,0
2016-12-02T04:30:27.412Z,0
2016-12-02T04:31:27.451Z,0
2016-12-02T04:32:27.846Z,0
2016-12-02T04:33:27.563Z,0
2016-12-02T04:34:27.626Z,0
2016-12-02T04:35:27.664Z,0
2016-12-02T04:36:27.753Z,0
2016-12-02T04:37:27.793Z,0
2016-12-02T04:38:27.844Z,0
2016-12-02T04:39:27.926Z,0
2016-12-02T04:40:27.974Z,0
2016-12-02T04:41:28.015Z,0
2016-12-02T04:42:28.059Z,0
2016-12-02T04:43:28.115Z,0
2016-12-02T04:44:28.200Z,0
2016-12-02T04:45:28.548Z,0
2016-12-02T04:46:28.290Z,0
2016-12-02T04:47:28.373Z,0
2016-12-02T04:48:28.411Z,0
2016-12-02T04:49:28.481Z,0
2016-12-02T04:50:28.518Z,0
2016-12-02T04:51:28.598Z,0
2016-12-02T04:52:28.627Z,0
2016-12-02T04:53:28.678Z,0
2016-12-02T04:54:28.754Z,0
2016-12-02T04:55:28.821Z,0
2016-12-02T04:56:28.855Z,0
2016-12-02T04:57:28.919Z,0
2016-12-02T04:58:28.974Z,0
2016-12-02T04:59:29.037Z,0
2016-12-02T05:00:29.105Z,0
2016-12-02T05:01:29.150Z,0
2016-12-02T05:02:29.209Z,0
2016-12-02T05:03:29.245Z,0
2016-12-02T05:04:29.326Z,0
2016-12-02T05:05:29.673Z,0
2016-12-02T05:06:29.449Z,0
2016-12-02T05:07:29.485Z,0
2016-12-02T05:08:29.554Z,0
2016-12-02T05:09:29.605Z,0
2016-12-02T05:10:29.661Z,0
2016-12-02T05:11:29.710Z,0
2016-12-02T05:12:29.754Z,0
2016-12-02T05:13:29.843Z,0
2016-12-02T05:14:29.894Z,0
2016-12-02T05:15:29.926Z,0
2016-12-02T05:16:29.991Z,0
2016-12-02T05:17:30.066Z,0
2016-12-02T05:18:30.118Z,0
2016-12-02T05:19:30.178Z,0
2016-12-02T05:20:30.219Z,0
2016-12-02T05:21:30.287Z,0
2016-12-02T05:22:30.331Z,0
2016-12-02T05:23:30.409Z,0
2016-12-02T05:24:30.447Z,0
2016-12-02T05:25:30.501Z,0
2016-12-02T05:26:30.569Z,0
2016-12-02T05:27:30.619Z,0
2016-12-02T05:28:30.684Z,0
2016-12-02T05:29:30.723Z,0
2016-12-02T05:30:30.784Z,0
2016-12-02T05:31:30.838Z,0
2016-12-02T05:32:30.903Z,0
2016-12-02T05:33:30.955Z,0
2016-12-02T05:34:31.002Z,0
2016-12-02T05:35:31.072Z,0
2016-12-02T05:36:31.107Z,0
2016-12-02T05:37:31.177Z,0
2016-12-02T05:38:31.233Z,0
2016-12-02T05:39:31.283Z,0
2016-12-02T05:40:31.340Z,0
2016-12-02T05:41:31.412Z,0
2016-12-02T05:42:31.465Z,0
2016-12-02T05:43:31.519Z,0
2016-12-02T05:44:31.559Z,0
2016-12-02T05:45:31.637Z,0
2016-12-02T05:46:31.672Z,0
2016-12-02T05:47:31.761Z,0
2016-12-02T05:48:31.814Z,0
2016-12-02T05:49:31.854Z,0
2016-12-02T05:50:31.905Z,0
2016-12-02T05:51:31.968Z,0
2016-12-02T05:52:32.042Z,0
2016-12-02T05:53:32.101Z,0
2016-12-02T05:54:32.156Z,0
2016-12-02T05:55:32.188Z,0
2016-12-02T05:56:32.242Z,0
2016-12-02T05:57:32.309Z,0
2016-12-02T05:58:32.386Z,0
2016-12-02T05:59:32.420Z,0
2016-12-02T06:00:32.482Z,0
2016-12-02T06:01:32.574Z,0
2016-12-02T06:02:32.593Z,0
2016-12-02T06:03:32.638Z,0
2016-12-02T06:04:32.709Z,0
2016-12-02T06:05:32.765Z,0
2016-12-02T06:06:32.823Z,0
2016-12-02T06:07:32.894Z,0
2016-12-02T06:08:32.936Z,0
2016-12-02T06:09:32.996Z,0
2016-12-02T06:10:33.062Z,0
2016-12-02T06:11:33.100Z,0
2016-12-02T06:12:33.159Z,0
2016-12-02T06:13:33.215Z,0
2016-12-02T06:14:33.287Z,0
2016-12-02T06:15:33.339Z,0
2016-12-02T06:16:33.385Z,0
2016-12-02T06:17:33.448Z,0
2016-12-02T06:18:33.494Z,0
2016-12-02T06:19:33.554Z,0
2016-12-02T06:20:33.617Z,0
2016-12-02T06:21:33.672Z,4
2016-12-02T06:22:33.713Z,4
2016-12-02T06:23:33.768Z,4
2016-12-02T06:24:33.832Z,4
2016-12-02T06:25:33.882Z,4
2016-12-02T06:26:33.958Z,4
2016-12-02T06:27:34.005Z,0
2016-12-02T06:28:34.072Z,4
2016-12-02T06:29:34.136Z,4
2016-12-02T06:30:34.177Z,4
2016-12-02T06:31:34.240Z,4
2016-12-02T06:32:34.291Z,8
2016-12-02T06:33:34.340Z,8
2016-12-02T06:34:34.432Z,8
2016-12-02T06:35:34.463Z,8
2016-12-02T06:36:34.517Z,12
2016-12-02T06:37:34.566Z,12
2016-12-02T06:38:34.609Z,12
2016-12-02T06:39:34.672Z,12
2016-12-02T06:40:34.730Z,16
2016-12-02T06:41:34.786Z,16
2016-12-02T06:42:34.870Z,16
2016-12-02T06:43:34.892Z,16
2016-12-02T06:44:34.974Z,20
2016-12-02T06:45:35.022Z,20
2016-12-02T06:46:35.079Z,24
2016-12-02T06:47:35.121Z,24
2016-12-02T06:48:35.200Z,28
2016-12-02T06:49:35.240Z,32
2016-12-02T06:50:35.293Z,32
2016-12-02T06:51:35.361Z,36
2016-12-02T06:52:35.416Z,40
2016-12-02T06:53:35.467Z,40
2016-12-02T06:54:35.526Z,44
2016-12-02T06:55:35.579Z,44
2016-12-02T06:56:35.626Z,48
2016-12-02T06:57:35.699Z,52
2016-12-02T06:58:35.748Z,56
2016-12-02T06:59:35.798Z,60
2016-12-02T07:00:35.872Z,68
2016-12-02T07:01:35.901Z,72
2016-12-02T07:02:36.280Z,76
2016-12-02T07:03:36.043Z,76
2016-12-02T07:04:36.090Z,80
2016-12-02T07:05:36.157Z,80
2016-12-02T07:06:36.193Z,84
2016-12-02T07:07:36.275Z,96
2016-12-02T07:08:36.318Z,100
2016-12-02T07:09:36.359Z,104
2016-12-02T07:10:36.438Z,104
2016-12-02T07:11:36.501Z,108
2016-12-02T07:12:36.538Z,120
2016-12-02T07:13:36.597Z,140
2016-12-02T07:14:36.638Z,192
2016-12-02T07:15:36.915Z,256
2016-12-02T07:16:36.789Z,316
2016-12-02T07:17:36.809Z,364
2016-12-02T07:18:36.871Z,380
2016-12-02T07:19:36.935Z,384
2016-12-02T07:20:36.993Z,356
2016-12-02T07:21:37.057Z,308
2016-12-02T07:22:37.102Z,260
2016-12-02T07:23:37.152Z,232
2016-12-02T07:24:37.250Z,224
2016-12-02T07:25:37.267Z,248
2016-12-02T07:26:37.319Z,296
2016-12-02T07:27:37.370Z,352
2016-12-02T07:28:37.451Z,436
2016-12-02T07:29:37.514Z,480
2016-12-02T07:30:37.575Z,508
2016-12-02T07:31:37.603Z,512
2016-12-02T07:32:37.676Z,524
2016-12-02T07:33:37.718Z,536
2016-12-02T07:34:37.764Z,544
2016-12-02T07:35:37.829Z,552
2016-12-02T07:36:37.887Z,560
2016-12-02T07:37:37.937Z,568
2016-12-02T07:38:38.004Z,576
2016-12-02T07:39:38.057Z,584
2016-12-02T07:40:38.116Z,588
2016-12-02T07:41:38.177Z,596
2016-12-02T07:42:38.210Z,604
2016-12-02T07:43:38.292Z,608
2016-12-02T07:44:38.360Z,612
2016-12-02T07:45:38.397Z,620
2016-12-02T07:46:38.436Z,628
2016-12-02T07:47:38.503Z,636
2016-12-02T07:48:38.549Z,640
2016-12-02T07:49:38.641Z,648
2016-12-02T07:50:38.680Z,656
2016-12-02T07:51:38.733Z,656
2016-12-02T07:52:38.796Z,660
2016-12-02T07:53:38.854Z,664
2016-12-02T07:54:38.939Z,668
2016-12-02T07:55:38.965Z,672
2016-12-02T07:56:39.018Z,676
2016-12-02T07:57:39.093Z,680
2016-12-02T07:58:39.147Z,692
2016-12-02T07:59:39.187Z,700
2016-12-02T08:00:39.232Z,704
2016-12-02T08:01:39.301Z,708
2016-12-02T08:02:39.365Z,712
2016-12-02T08:03:39.433Z,708
2016-12-02T08:04:39.481Z,712
2016-12-02T08:05:39.526Z,728
2016-12-02T08:06:39.584Z,736
2016-12-02T08:07:39.650Z,744
2016-12-02T08:08:39.704Z,748
2016-12-02T08:09:39.745Z,756
2016-12-02T08:10:39.805Z,764
2016-12-02T08:11:39.872Z,772
2016-12-02T08:12:39.921Z,780
2016-12-02T08:13:39.987Z,784
2016-12-02T08:14:40.049Z,792
2016-12-02T08:15:40.095Z,800
2016-12-02T08:16:40.155Z,808
2016-12-02T08:17:40.211Z,816
2016-12-02T08:18:40.276Z,820
2016-12-02T08:19:40.321Z,832
2016-12-02T08:20:40.391Z,840
2016-12-02T08:21:40.426Z,848
2016-12-02T08:22:40.502Z,852
2016-12-02T08:23:40.554Z,860
2016-12-02T08:24:40.599Z,860
2016-12-02T08:25:40.677Z,872
2016-12-02T08:26:40.712Z,868
2016-12-02T08:27:40.763Z,876
2016-12-02T08:28:40.840Z,880
2016-12-02T08:29:40.890Z,880
2016-12-02T08:30:40.957Z,888
2016-12-02T08:31:41.012Z,892
2016-12-02T08:32:41.067Z,892
2016-12-02T08:33:41.119Z,900
2016-12-02T08:34:41.170Z,900
2016-12-02T08:35:41.238Z,904
2016-12-02T08:36:41.598Z,904
2016-12-02T08:37:41.338Z,908
2016-12-02T08:38:41.386Z,912
2016-12-02T08:39:41.477Z,916
2016-12-02T08:40:41.512Z,916
2016-12-02T08:41:41.567Z,916
2016-12-02T08:42:41.628Z,920
2016-12-02T08:43:41.688Z,924
2016-12-02T08:44:41.757Z,924
2016-12-02T08:45:41.813Z,928
2016-12-02T08:46:41.857Z,928
2016-12-02T08:47:41.914Z,924
2016-12-02T08:48:41.969Z,928
2016-12-02T08:49:42.041Z,928
2016-12-02T08:50:42.081Z,932
2016-12-02T08:51:42.135Z,936
2016-12-02T08:52:42.199Z,940
2016-12-02T08:53:42.254Z,948
2016-12-02T08:54:42.324Z,952
2016-12-02T08:55:42.368Z,956
2016-12-02T08:56:42.410Z,960
2016-12-02T08:57:42.488Z,964
2016-12-02T08:58:42.560Z,968
2016-12-02T08:59:42.593Z,976
2016-12-02T09:00:42.656Z,980
2016-12-02T09:01:42.706Z,980
2016-12-02T09:02:42.765Z,980
2016-12-02T09:03:42.814Z,984
2016-12-02T09:04:42.885Z,984
2016-12-02T09:05:42.930Z,984
2016-12-02T09:06:42.996Z,984
2016-12-02T09:07:43.070Z,984
2016-12-02T09:08:43.126Z,984
2016-12-02T09:09:43.168Z,984
2016-12-02T09:10:43.236Z,980
2016-12-02T09:11:43.275Z,980
2016-12-02T09:12:43.340Z,984
2016-12-02T09:13:43.397Z,984
2016-12-02T09:14:43.454Z,984
2016-12-02T09:15:43.489Z,984
2016-12-02T09:16:43.587Z,980
2016-12-02T09:17:43.610Z,980
2016-12-02T09:18:43.674Z,984
2016-12-02T09:19:43.740Z,988
2016-12-02T09:20:43.810Z,996
2016-12-02T09:21:43.839Z,996
2016-12-02T09:22:43.897Z,1000
2016-12-02T09:23:43.959Z,1008
2016-12-02T09:24:44.038Z,1016
2016-12-02T09:25:44.072Z,1016
2016-12-02T09:26:44.124Z,1024
2016-12-02T09:27:44.193Z,1028
2016-12-02T09:28:44.276Z,1032
2016-12-02T09:29:44.331Z,1040
2016-12-02T09:30:44.370Z,1044
2016-12-02T09:31:44.412Z,1052
2016-12-02T09:32:44.470Z,1048
2016-12-02T09:33:44.519Z,1052
2016-12-02T09:34:44.593Z,1060
2016-12-02T09:35:44.638Z,1064
2016-12-02T09:36:44.693Z,1072
2016-12-02T09:37:44.753Z,1072
2016-12-02T09:38:45.114Z,1080
2016-12-02T09:39:44.880Z,1088
2016-12-02T09:40:44.913Z,1092
2016-12-02T09:41:44.992Z,1104
2016-12-02T09:42:45.028Z,1108
2016-12-02T09:43:45.080Z,1116
2016-12-02T09:44:45.145Z,1136
2016-12-02T09:45:45.212Z,1148
2016-12-02T09:46:45.256Z,1148
2016-12-02T09:47:45.335Z,1152
2016-12-02T09:48:45.366Z,1156
2016-12-02T09:49:45.437Z,1160
2016-12-02T09:50:45.492Z,1168
2016-12-02T09:51:45.566Z,1172
2016-12-02T09:52:45.604Z,1176
2016-12-02T09:53:45.669Z,1184
2016-12-02T09:54:45.739Z,1188
2016-12-02T09:55:45.770Z,1200
2016-12-02T09:56:45.835Z,1208
2016-12-02T09:57:45.878Z,1320
2016-12-02T09:58:45.961Z,1220
2016-12-02T09:59:46.015Z,1232
2016-12-02T10:00:46.083Z,1240
2016-12-02T10:01:46.131Z,1244
2016-12-02T10:02:46.193Z,1232
2016-12-02T10:03:46.241Z,1252
2016-12-02T10:04:46.283Z,1260
2016-12-02T10:05:46.338Z,1268
2016-12-02T10:06:46.415Z,1272
2016-12-02T10:07:46.461Z,1280
2016-12-02T10:08:46.503Z,1284
2016-12-02T10:09:46.568Z,1288
2016-12-02T10:10:46.652Z,1296
2016-12-02T10:11:46.684Z,1304
2016-12-02T10:12:46.737Z,1304
2016-12-02T10:13:46.832Z,1308
2016-12-02T10:14:46.860Z,1316
2016-12-02T10:15:46.918Z,1324
2016-12-02T10:16:46.996Z,1328
2016-12-02T10:17:47.053Z,1372
2016-12-02T10:18:47.100Z,1784
2016-12-02T10:19:47.168Z,1564
2016-12-02T10:20:47.217Z,1472
2016-12-02T10:21:47.275Z,1340
2016-12-02T10:22:47.334Z,1344
2016-12-02T10:23:47.388Z,1348
2016-12-02T10:24:47.420Z,1348
2016-12-02T10:25:47.496Z,1364
2016-12-02T10:26:47.559Z,1356
2016-12-02T10:27:47.607Z,1364
2016-12-02T10:28:47.648Z,1364
2016-12-02T10:29:47.705Z,1368
2016-12-02T10:30:47.768Z,1372
2016-12-02T10:31:47.856Z,1372
2016-12-02T10:32:47.884Z,1372
2016-12-02T10:33:47.961Z,1376
2016-12-02T10:34:48.111Z,1380
2016-12-02T10:35:48.069Z,1380
2016-12-02T10:36:48.115Z,1380
2016-12-02T10:37:48.195Z,1384
2016-12-02T10:38:48.247Z,1388
2016-12-02T10:39:48.307Z,1388
2016-12-02T10:40:48.351Z,1400
2016-12-02T10:41:48.409Z,1388
2016-12-02T10:42:48.455Z,1392
2016-12-02T10:43:48.525Z,1392
2016-12-02T10:44:48.568Z,1396
2016-12-02T10:45:48.645Z,1400
2016-12-02T10:46:48.678Z,1400
2016-12-02T10:47:48.754Z,1396
2016-12-02T10:48:48.798Z,1396
2016-12-02T10:49:48.876Z,1396
2016-12-02T10:50:48.906Z,1392
2016-12-02T10:51:48.962Z,1392
2016-12-02T10:52:49.034Z,1396
2016-12-02T10:53:49.087Z,1396
2016-12-02T10:54:49.148Z,1396
2016-12-02T10:55:49.207Z,1400
2016-12-02T10:56:49.363Z,1404
2016-12-02T10:57:49.312Z,1404
2016-12-02T10:58:49.386Z,1400
2016-12-02T10:59:49.441Z,1412
2016-12-02T11:00:49.491Z,1412
2016-12-02T11:01:49.559Z,1416
2016-12-02T11:02:49.611Z,1420
2016-12-02T11:03:49.684Z,1408
2016-12-02T11:04:49.732Z,1420
2016-12-02T11:05:49.791Z,1428
2016-12-02T11:06:49.856Z,1432
2016-12-02T11:07:49.904Z,1440
2016-12-02T11:08:49.945Z,1444
2016-12-02T11:09:50.000Z,1452
2016-12-02T11:10:50.078Z,1456
2016-12-02T11:11:50.149Z,1464
2016-12-02T11:12:50.186Z,1472
2016-12-02T11:13:50.263Z,1480
2016-12-02T11:14:50.314Z,1488
2016-12-02T11:15:50.368Z,1492
2016-12-02T11:16:50.416Z,1500
2016-12-02T11:17:50.468Z,1500
2016-12-02T11:18:50.537Z,1508
2016-12-02T11:19:50.611Z,1516
2016-12-02T11:20:50.640Z,1524
2016-12-02T11:21:50.710Z,1532
2016-12-02T11:22:50.768Z,1540
2016-12-02T11:23:50.843Z,1544
2016-12-02T11:24:50.891Z,1548
2016-12-02T11:25:50.939Z,1556
2016-12-02T11:26:51.085Z,1568
2016-12-02T11:27:51.058Z,1572
2016-12-02T11:28:51.104Z,1580
2016-12-02T11:29:51.173Z,1588
2016-12-02T11:30:51.236Z,1596
2016-12-02T11:31:51.290Z,1600
2016-12-02T11:32:51.324Z,1604
2016-12-02T11:33:51.413Z,1612
2016-12-02T11:34:51.447Z,1612
2016-12-02T11:35:51.522Z,1620
2016-12-02T11:36:51.577Z,1628
2016-12-02T11:37:51.629Z,1636
2016-12-02T11:38:51.692Z,1640
2016-12-02T11:39:51.750Z,1652
2016-12-02T11:40:51.834Z,1660
2016-12-02T11:41:51.877Z,1664
2016-12-02T11:42:51.918Z,1672
2016-12-02T11:43:51.981Z,1680
2016-12-02T11:44:52.033Z,1692
2016-12-02T11:45:52.305Z,1696
2016-12-02T11:46:52.159Z,1704
2016-12-02T11:47:52.207Z,1708
2016-12-02T11:48:52.287Z,1720
2016-12-02T11:49:52.307Z,1728
2016-12-02T11:50:52.391Z,1736
2016-12-02T11:51:52.423Z,1744
2016-12-02T11:52:52.504Z,1748
2016-12-02T11:53:52.571Z,1760
2016-12-02T11:54:52.621Z,1764
2016-12-02T11:55:52.666Z,1772
2016-12-02T11:56:52.743Z,1776
2016-12-02T11:57:52.783Z,1784
2016-12-02T11:58:52.848Z,1788
2016-12-02T11:59:52.884Z,1800
2016-12-02T12:00:52.963Z,1808
2016-12-02T12:01:53.018Z,1808
2016-12-02T12:02:53.069Z,1816
2016-12-02T12:03:53.129Z,1824
2016-12-02T12:04:53.196Z,1824
2016-12-02T12:05:53.257Z,1828
2016-12-02T12:06:53.313Z,1832
2016-12-02T12:07:53.368Z,1840
2016-12-02T12:08:53.752Z,1848
2016-12-02T12:09:53.481Z,1844
2016-12-02T12:10:53.527Z,1848
2016-12-02T12:11:53.599Z,1852
2016-12-02T12:12:53.857Z,1856
2016-12-02T12:13:53.719Z,1856
2016-12-02T12:14:53.795Z,1860
2016-12-02T12:15:53.826Z,1864
2016-12-02T12:16:53.893Z,1868
2016-12-02T12:17:53.946Z,1868
2016-12-02T12:18:53.988Z,1872
2016-12-02T12:19:54.081Z,1872
2016-12-02T12:20:54.130Z,1876
2016-12-02T12:21:54.174Z,1876
2016-12-02T12:22:54.218Z,1880
2016-12-02T12:23:54.268Z,1884
2016-12-02T12:24:54.345Z,1888
2016-12-02T12:25:54.397Z,1884
2016-12-02T12:26:54.457Z,1892
2016-12-02T12:27:54.507Z,1892
2016-12-02T12:28:54.560Z,1896
2016-12-02T12:29:54.623Z,1900
2016-12-02T12:30:54.670Z,1900
2016-12-02T12:31:54.754Z,1900
2016-12-02T12:32:54.809Z,1900
2016-12-02T12:33:54.862Z,1896
2016-12-02T12:34:54.906Z,1892
2016-12-02T12:35:54.978Z,1884
2016-12-02T12:36:55.032Z,1876
2016-12-02T12:37:55.114Z,1872
2016-12-02T12:38:55.166Z,1856
2016-12-02T12:39:55.434Z,1848
2016-12-02T12:40:55.248Z,1836
2016-12-02T12:42:10.243Z,1820
2016-12-02T12:42:55.378Z,1812
2016-12-02T12:43:55.427Z,1796
2016-12-02T12:44:55.483Z,1788
2016-12-02T12:45:55.568Z,1780
2016-12-02T12:46:55.602Z,1764
2016-12-02T12:47:55.677Z,1752
2016-12-02T12:48:55.740Z,1716
2016-12-02T12:49:55.787Z,1724
2016-12-02T12:50:55.846Z,1716
2016-12-02T12:51:55.893Z,1704
2016-12-02T12:52:55.960Z,1688
2016-12-02T12:53:56.035Z,1676
2016-12-02T12:54:56.077Z,1660
2016-12-02T12:55:56.141Z,1648
2016-12-02T12:56:56.217Z,1644
2016-12-02T12:57:56.259Z,1632
2016-12-02T12:58:56.310Z,1624
2016-12-02T12:59:56.394Z,1616
2016-12-02T13:00:56.429Z,1604
2016-12-02T13:01:56.477Z,1592
2016-12-02T13:02:56.543Z,1580
2016-12-02T13:03:56.598Z,1568
2016-12-02T13:04:56.673Z,1552
2016-12-02T13:05:56.704Z,1544
2016-12-02T13:06:56.984Z,1536
2016-12-02T13:07:56.827Z,1524
2016-12-02T13:08:56.893Z,1512
2016-12-02T13:09:56.966Z,1504
2016-12-02T13:10:57.021Z,1488
2016-12-02T13:11:57.074Z,1480
2016-12-02T13:12:57.141Z,1472
2016-12-02T13:13:57.183Z,1460
2016-12-02T13:14:57.242Z,1452
2016-12-02T13:15:57.300Z,1444
2016-12-02T13:16:57.379Z,1428
2016-12-02T13:17:57.420Z,1412
2016-12-02T13:18:57.474Z,1404
2016-12-02T13:19:57.540Z,1392
2016-12-02T13:20:57.584Z,1380
2016-12-02T13:21:57.661Z,1372
2016-12-02T13:22:57.699Z,1364
2016-12-02T13:23:57.766Z,1352
2016-12-02T13:24:57.818Z,1340
2016-12-02T13:25:57.885Z,1328
2016-12-02T13:26:57.955Z,1328
2016-12-02T13:27:57.997Z,1312
2016-12-02T13:28:58.062Z,1304
2016-12-02T13:29:58.131Z,1296
2016-12-02T13:30:58.171Z,1288
2016-12-02T13:31:58.217Z,1280
2016-12-02T13:32:58.309Z,1272
2016-12-02T13:33:58.543Z,1268
2016-12-02T13:34:58.600Z,1264
2016-12-02T13:36:13.395Z,1256
2016-12-02T13:36:58.502Z,1252
2016-12-02T13:37:58.558Z,1244
2016-12-02T13:38:58.631Z,1236
2016-12-02T13:39:58.675Z,1236
2016-12-02T13:40:58.768Z,1228
2016-12-02T13:41:58.803Z,1220
2016-12-02T13:42:58.859Z,1216
2016-12-02T13:43:58.928Z,1208
2016-12-02T13:44:58.963Z,1204
2016-12-02T13:45:59.026Z,1200
2016-12-02T13:46:59.099Z,1192
2016-12-02T13:47:59.157Z,1188
2016-12-02T13:48:59.217Z,1184
2016-12-02T13:49:59.266Z,1180
2016-12-02T13:50:59.329Z,1168
2016-12-02T13:51:59.703Z,1168
2016-12-02T13:52:59.439Z,1156
2016-12-02T13:53:59.504Z,1148
2016-12-02T13:54:59.572Z,1140
2016-12-02T13:55:59.619Z,1128
2016-12-02T13:56:59.670Z,1096
2016-12-02T13:57:59.730Z,924
2016-12-02T13:58:59.784Z,588
2016-12-02T13:59:59.870Z,328
2016-12-02T14:01:00.114Z,280
2016-12-02T14:01:59.969Z,280
2016-12-02T14:03:00.237Z,276
2016-12-02T14:04:00.080Z,276
2016-12-02T14:05:00.134Z,268